PWSweather.com
Personal Weather Stations
Station Observations
WESTON01
WestonSuperMareGB BS22 8RT

WestonSuperMareGB BS22 8RT

Lat: 51.351508, Lon: -2.933373

Elevation: 15

Station Type: Fine Offset WH1080

http://www.westonweather.co.uk

High Low Average
Temperature 55.5°F13.1°C 46.1°F7.8°C 49.2°F9.6°C
Dew Point 45.1°F7.3°C 39.5°F4.2°C 42.4°F5.8°C
Winds 11.8 mph 19.0 kmh 3.5 mph 5.6 kmh 7.0 mph SSW11.3 kmh SSW
Wind Gusts 17.3 mph27.8 kmh 3.6 mph5.8 kmh 10.0 mph16.1 kmh
Humidity 84% 67% 77%
Pressure 30.09 in1019.0 mb 29.97 in1014.9 mb -
Precipitation 0.00 in0.0 mm - -
Hour Temp Dew Point Humidity Winds Wind Gusts Pressure Precip Precip Rate Daily Precip Total
12:00 AM 46.7°F8.2°C 39.5°F4.2°C 76% 5.7 mph SW9.2 kmh SW 7.7 mph12.4 kmh 30.00 in1015.9 mb 0.00 in0.0 mm 0.00 in0.0 mm 0.00 in0.0 mm
12:05 AM 46.7°F8.2°C 39.5°F4.2°C 76% 4.8 mph SW7.7 kmh SW 7.7 mph12.4 kmh 30.00 in1015.9 mb 0.00 in0.0 mm 0.00 in0.0 mm 0.00 in0.0 mm
12:10 AM 46.8°F8.2°C 40.0°F4.4°C 77% 4.5 mph SW7.2 kmh SW 8.0 mph12.9 kmh 30.00 in1015.9 mb 0.00 in0.0 mm 0.00 in0.0 mm 0.00 in0.0 mm
12:15 AM 46.8°F8.2°C 40.0°F4.4°C 77% 5.0 mph SW8.0 kmh SW 8.0 mph12.9 kmh 30.00 in1015.9 mb 0.00 in0.0 mm 0.00 in0.0 mm 0.00 in0.0 mm
12:20 AM 46.8°F8.2°C 40.0°F4.4°C 77% 6.2 mph SW10.0 kmh SW 8.6 mph13.8 kmh 30.00 in1015.9 mb 0.00 in0.0 mm 0.00 in0.0 mm 0.00 in0.0 mm
12:25 AM 47.0°F8.3°C 39.9°F4.4°C 76% 6.0 mph SW9.7 kmh SW 8.6 mph13.8 kmh 30.00 in1015.9 mb 0.00 in0.0 mm 0.00 in0.0 mm 0.00 in0.0 mm
12:30 AM 47.0°F8.3°C 39.9°F4.4°C 76% 4.5 mph SSW7.2 kmh SSW 6.5 mph10.5 kmh 30.00 in1015.9 mb 0.00 in0.0 mm 0.00 in0.0 mm 0.00 in0.0 mm
12:35 AM 47.0°F8.3°C 39.9°F4.4°C 76% 4.2 mph SSW6.8 kmh SSW 5.1 mph8.2 kmh 30.00 in1015.9 mb 0.00 in0.0 mm 0.00 in0.0 mm 0.00 in0.0 mm
12:40 AM 47.0°F8.3°C 39.9°F4.4°C 76% 4.4 mph S7.1 kmh S 7.1 mph11.4 kmh 30.00 in1015.9 mb 0.00 in0.0 mm 0.00 in0.0 mm 0.00 in0.0 mm
12:45 AM 47.0°F8.3°C 39.9°F4.4°C 76% 4.7 mph S7.6 kmh S 7.1 mph11.4 kmh 30.00 in1015.9 mb 0.00 in0.0 mm 0.00 in0.0 mm 0.00 in0.0 mm
12:50 AM 47.0°F8.3°C 39.9°F4.4°C 76% 5.1 mph S8.2 kmh S 7.1 mph11.4 kmh 30.00 in1015.9 mb 0.00 in0.0 mm 0.00 in0.0 mm 0.00 in0.0 mm
12:55 AM 47.0°F8.3°C 39.9°F4.4°C 76% 4.2 mph SW6.8 kmh SW 6.0 mph9.7 kmh 30.00 in1015.9 mb 0.00 in0.0 mm 0.00 in0.0 mm 0.00 in0.0 mm
01:00 AM 47.0°F8.3°C 39.9°F4.4°C 76% 5.2 mph SW8.4 kmh SW 8.3 mph13.4 kmh 30.00 in1015.9 mb 0.00 in0.0 mm 0.00 in0.0 mm 0.00 in0.0 mm
01:05 AM 47.0°F8.3°C 39.9°F4.4°C 76% 5.8 mph SW9.3 kmh SW 8.3 mph13.4 kmh 30.00 in1015.9 mb 0.00 in0.0 mm 0.00 in0.0 mm 0.00 in0.0 mm
01:10 AM 47.0°F8.3°C 39.9°F4.4°C 76% 5.8 mph SSW9.3 kmh SSW 8.6 mph13.8 kmh 30.00 in1015.9 mb 0.00 in0.0 mm 0.00 in0.0 mm 0.00 in0.0 mm
01:15 AM 47.0°F8.3°C 39.9°F4.4°C 76% 5.2 mph SW8.4 kmh SW 8.6 mph13.8 kmh 30.00 in1015.9 mb 0.00 in0.0 mm 0.00 in0.0 mm 0.00 in0.0 mm
01:20 AM 46.8°F8.2°C 39.7°F4.3°C 76% 5.2 mph SW8.4 kmh SW 8.0 mph12.9 kmh 30.00 in1015.9 mb 0.00 in0.0 mm 0.00 in0.0 mm 0.00 in0.0 mm
01:25 AM 46.8°F8.2°C 39.7°F4.3°C 76% 5.0 mph SW8.0 kmh SW 7.4 mph11.9 kmh 30.00 in1015.9 mb 0.00 in0.0 mm 0.00 in0.0 mm 0.00 in0.0 mm
01:30 AM 46.8°F8.2°C 40.0°F4.4°C 77% 4.4 mph SW7.1 kmh SW 6.2 mph10.0 kmh 30.00 in1015.9 mb 0.00 in0.0 mm 0.00 in0.0 mm 0.00 in0.0 mm
01:35 AM 46.8°F8.2°C 40.0°F4.4°C 77% 4.2 mph SSW6.8 kmh SSW 7.1 mph11.4 kmh 30.00 in1015.9 mb 0.00 in0.0 mm 0.00 in0.0 mm 0.00 in0.0 mm
01:40 AM 46.8°F8.2°C 40.0°F4.4°C 77% 4.4 mph S7.1 kmh S 7.1 mph11.4 kmh 29.97 in1014.9 mb 0.00 in0.0 mm 0.00 in0.0 mm 0.00 in0.0 mm
01:45 AM 46.8°F8.2°C 40.0°F4.4°C 77% 5.0 mph SSW8.0 kmh SSW 8.6 mph13.8 kmh 29.97 in1014.9 mb 0.00 in0.0 mm 0.00 in0.0 mm 0.00 in0.0 mm
01:50 AM 47.0°F8.3°C 39.9°F4.4°C 76% 4.4 mph SW7.1 kmh SW 8.6 mph13.8 kmh 29.97 in1014.9 mb 0.00 in0.0 mm 0.00 in0.0 mm 0.00 in0.0 mm
01:55 AM 47.0°F8.3°C 39.9°F4.4°C 76% 5.1 mph SW8.2 kmh SW 8.0 mph12.9 kmh 30.00 in1015.9 mb 0.00 in0.0 mm 0.00 in0.0 mm 0.00 in0.0 mm
02:00 AM 47.0°F8.3°C 39.9°F4.4°C 76% 5.7 mph SSW9.2 kmh SSW 8.0 mph12.9 kmh 30.00 in1015.9 mb 0.00 in0.0 mm 0.00 in0.0 mm 0.00 in0.0 mm
02:05 AM 47.0°F8.3°C 39.9°F4.4°C 76% 5.2 mph SSW8.4 kmh SSW 6.5 mph10.5 kmh 30.00 in1015.9 mb 0.00 in0.0 mm 0.00 in0.0 mm 0.00 in0.0 mm
02:10 AM 47.0°F8.3°C 39.9°F4.4°C 76% 5.3 mph SSW8.5 kmh SSW 8.3 mph13.4 kmh 30.00 in1015.9 mb 0.00 in0.0 mm 0.00 in0.0 mm 0.00 in0.0 mm
02:15 AM 47.0°F8.3°C 40.2°F4.6°C 77% 5.6 mph SSW9.0 kmh SSW 8.3 mph13.4 kmh 30.00 in1015.9 mb 0.00 in0.0 mm 0.00 in0.0 mm 0.00 in0.0 mm
02:20 AM 47.2°F8.4°C 40.4°F4.7°C 77% 5.6 mph SSW9.0 kmh SSW 7.7 mph12.4 kmh 30.00 in1015.9 mb 0.00 in0.0 mm 0.00 in0.0 mm 0.00 in0.0 mm
02:25 AM 47.2°F8.4°C 40.4°F4.7°C 77% 5.4 mph SSW8.7 kmh SSW 7.7 mph12.4 kmh 29.97 in1014.9 mb 0.00 in0.0 mm 0.00 in0.0 mm 0.00 in0.0 mm
02:30 AM 47.2°F8.4°C 40.4°F4.7°C 77% 5.1 mph SW8.2 kmh SW 7.7 mph12.4 kmh 29.97 in1014.9 mb 0.00 in0.0 mm 0.00 in0.0 mm 0.00 in0.0 mm
02:35 AM 47.2°F8.4°C 40.4°F4.7°C 77% 5.5 mph SSW8.9 kmh SSW 10.1 mph16.3 kmh 29.97 in1014.9 mb 0.00 in0.0 mm 0.00 in0.0 mm 0.00 in0.0 mm
02:40 AM 47.2°F8.4°C 40.4°F4.7°C 77% 6.0 mph SW9.7 kmh SW 10.1 mph16.3 kmh 29.97 in1014.9 mb 0.00 in0.0 mm 0.00 in0.0 mm 0.00 in0.0 mm
02:45 AM 47.2°F8.4°C 40.4°F4.7°C 77% 5.4 mph SW8.7 kmh SW 8.3 mph13.4 kmh 29.97 in1014.9 mb 0.00 in0.0 mm 0.00 in0.0 mm 0.00 in0.0 mm
02:50 AM 47.2°F8.4°C 40.4°F4.7°C 77% 5.3 mph SW8.5 kmh SW 8.3 mph13.4 kmh 29.97 in1014.9 mb 0.00 in0.0 mm 0.00 in0.0 mm 0.00 in0.0 mm
02:55 AM 47.2°F8.4°C 40.4°F4.7°C 77% 4.6 mph SW7.4 kmh SW 8.0 mph12.9 kmh 29.97 in1014.9 mb 0.00 in0.0 mm 0.00 in0.0 mm 0.00 in0.0 mm
03:00 AM 47.2°F8.4°C 40.4°F4.7°C 77% 4.3 mph SSW6.9 kmh SSW 8.0 mph12.9 kmh 29.97 in1014.9 mb 0.00 in0.0 mm 0.00 in0.0 mm 0.00 in0.0 mm
03:05 AM 47.2°F8.4°C 40.4°F4.7°C 77% 4.8 mph SSW7.7 kmh SSW 7.4 mph11.9 kmh 29.97 in1014.9 mb 0.00 in0.0 mm 0.00 in0.0 mm 0.00 in0.0 mm
03:10 AM 47.2°F8.4°C 40.4°F4.7°C 77% 5.4 mph S8.7 kmh S 8.6 mph13.8 kmh 29.97 in1014.9 mb 0.00 in0.0 mm 0.00 in0.0 mm 0.00 in0.0 mm
03:15 AM 47.2°F8.4°C 40.4°F4.7°C 77% 5.6 mph SSW9.0 kmh SSW 8.6 mph13.8 kmh 29.97 in1014.9 mb 0.00 in0.0 mm 0.00 in0.0 mm 0.00 in0.0 mm
03:20 AM 47.2°F8.4°C 40.4°F4.7°C 77% 6.7 mph SSW10.8 kmh SSW 10.4 mph16.7 kmh 29.97 in1014.9 mb 0.00 in0.0 mm 0.00 in0.0 mm 0.00 in0.0 mm
03:25 AM 47.2°F8.4°C 40.4°F4.7°C 77% 7.0 mph SSW11.3 kmh SSW 10.4 mph16.7 kmh 29.97 in1014.9 mb 0.00 in0.0 mm 0.00 in0.0 mm 0.00 in0.0 mm
03:30 AM 47.2°F8.4°C 40.7°F4.8°C 78% 5.0 mph SSW8.0 kmh SSW 7.4 mph11.9 kmh 29.97 in1014.9 mb 0.00 in0.0 mm 0.00 in0.0 mm 0.00 in0.0 mm
03:35 AM 47.2°F8.4°C 40.7°F4.8°C 78% 5.6 mph S9.0 kmh S 7.7 mph12.4 kmh 29.97 in1014.9 mb 0.00 in0.0 mm 0.00 in0.0 mm 0.00 in0.0 mm
03:40 AM 47.2°F8.4°C 40.7°F4.8°C 78% 7.0 mph SSW11.3 kmh SSW 9.5 mph15.3 kmh 29.97 in1014.9 mb 0.00 in0.0 mm 0.00 in0.0 mm 0.00 in0.0 mm
03:45 AM 47.2°F8.4°C 40.7°F4.8°C 78% 5.8 mph SSW9.3 kmh SSW 9.5 mph15.3 kmh 29.97 in1014.9 mb 0.00 in0.0 mm 0.00 in0.0 mm 0.00 in0.0 mm
03:50 AM 47.2°F8.4°C 40.7°F4.8°C 78% 4.9 mph SW7.9 kmh SW 7.1 mph11.4 kmh 29.97 in1014.9 mb 0.00 in0.0 mm 0.00 in0.0 mm 0.00 in0.0 mm
03:55 AM 47.0°F8.3°C 40.5°F4.7°C 78% 4.3 mph SSW6.9 kmh SSW 6.0 mph9.7 kmh 29.97 in1014.9 mb 0.00 in0.0 mm 0.00 in0.0 mm 0.00 in0.0 mm
04:00 AM 47.0°F8.3°C 40.5°F4.7°C 78% 4.6 mph SW7.4 kmh SW 8.3 mph13.4 kmh 29.97 in1014.9 mb 0.00 in0.0 mm 0.00 in0.0 mm 0.00 in0.0 mm
04:05 AM 47.0°F8.3°C 40.5°F4.7°C 78% 5.4 mph SSW8.7 kmh SSW 8.3 mph13.4 kmh 29.97 in1014.9 mb 0.00 in0.0 mm 0.00 in0.0 mm 0.00 in0.0 mm
04:10 AM 47.0°F8.3°C 40.5°F4.7°C 78% 5.6 mph SSW9.0 kmh SSW 8.6 mph13.8 kmh 29.97 in1014.9 mb 0.00 in0.0 mm 0.00 in0.0 mm 0.00 in0.0 mm
04:15 AM 47.0°F8.3°C 40.5°F4.7°C 78% 6.0 mph S9.7 kmh S 8.6 mph13.8 kmh 29.97 in1014.9 mb 0.00 in0.0 mm 0.00 in0.0 mm 0.00 in0.0 mm
04:20 AM 46.8°F8.2°C 40.7°F4.8°C 79% 5.6 mph S9.0 kmh S 8.3 mph13.4 kmh 29.97 in1014.9 mb 0.00 in0.0 mm 0.00 in0.0 mm 0.00 in0.0 mm
04:25 AM 46.8°F8.2°C 40.7°F4.8°C 79% 4.3 mph S6.9 kmh S 7.7 mph12.4 kmh 29.97 in1014.9 mb 0.00 in0.0 mm 0.00 in0.0 mm 0.00 in0.0 mm
04:30 AM 46.8°F8.2°C 40.7°F4.8°C 79% 3.7 mph SW6.0 kmh SW 6.5 mph10.5 kmh 29.97 in1014.9 mb 0.00 in0.0 mm 0.00 in0.0 mm 0.00 in0.0 mm
04:35 AM 46.7°F8.2°C 40.5°F4.7°C 79% 4.3 mph SW6.9 kmh SW 6.5 mph10.5 kmh 29.97 in1014.9 mb 0.00 in0.0 mm 0.00 in0.0 mm 0.00 in0.0 mm
04:40 AM 46.7°F8.2°C 40.5°F4.7°C 79% 4.4 mph SSW7.1 kmh SSW 5.7 mph9.2 kmh 29.97 in1014.9 mb 0.00 in0.0 mm 0.00 in0.0 mm 0.00 in0.0 mm
04:45 AM 46.7°F8.2°C 40.5°F4.7°C 79% 4.7 mph SSW7.6 kmh SSW 6.2 mph10.0 kmh 29.97 in1014.9 mb 0.00 in0.0 mm 0.00 in0.0 mm 0.00 in0.0 mm
04:50 AM 46.7°F8.2°C 40.5°F4.7°C 79% 5.7 mph SW9.2 kmh SW 7.7 mph12.4 kmh 29.97 in1014.9 mb 0.00 in0.0 mm 0.00 in0.0 mm 0.00 in0.0 mm
04:55 AM 46.7°F8.2°C 40.5°F4.7°C 79% 6.7 mph SSW10.8 kmh SSW 8.0 mph12.9 kmh 29.97 in1014.9 mb 0.00 in0.0 mm 0.00 in0.0 mm 0.00 in0.0 mm
05:00 AM 46.7°F8.2°C 40.5°F4.7°C 79% 7.7 mph SSW12.4 kmh SSW 9.8 mph15.8 kmh 29.97 in1014.9 mb 0.00 in0.0 mm 0.00 in0.0 mm 0.00 in0.0 mm
05:05 AM 46.7°F8.2°C 40.5°F4.7°C 79% 7.9 mph SSW12.7 kmh SSW 10.1 mph16.3 kmh 29.97 in1014.9 mb 0.00 in0.0 mm 0.00 in0.0 mm 0.00 in0.0 mm
05:10 AM 46.8°F8.2°C 40.7°F4.8°C 79% 6.4 mph S10.3 kmh S 10.1 mph16.3 kmh 29.97 in1014.9 mb 0.00 in0.0 mm 0.00 in0.0 mm 0.00 in0.0 mm
05:15 AM 46.8°F8.2°C 40.7°F4.8°C 79% 5.0 mph S8.0 kmh S 7.1 mph11.4 kmh 29.97 in1014.9 mb 0.00 in0.0 mm 0.00 in0.0 mm 0.00 in0.0 mm
05:20 AM 46.7°F8.2°C 40.5°F4.7°C 79% 5.6 mph S9.0 kmh S 8.0 mph12.9 kmh 29.97 in1014.9 mb 0.00 in0.0 mm 0.00 in0.0 mm 0.00 in0.0 mm
05:25 AM 46.7°F8.2°C 40.5°F4.7°C 79% 6.0 mph S9.7 kmh S 8.3 mph13.4 kmh 29.97 in1014.9 mb 0.00 in0.0 mm 0.00 in0.0 mm 0.00 in0.0 mm
05:35 AM 46.5°F8.1°C 40.3°F4.6°C 79% 4.9 mph S7.9 kmh S 6.5 mph10.5 kmh 29.97 in1014.9 mb 0.00 in0.0 mm 0.00 in0.0 mm 0.00 in0.0 mm
05:40 AM 46.5°F8.1°C 40.7°F4.8°C 80% 5.4 mph S8.7 kmh S 7.1 mph11.4 kmh 29.97 in1014.9 mb 0.00 in0.0 mm 0.00 in0.0 mm 0.00 in0.0 mm
05:45 AM 46.5°F8.1°C 40.7°F4.8°C 80% 5.3 mph S8.5 kmh S 7.1 mph11.4 kmh 29.97 in1014.9 mb 0.00 in0.0 mm 0.00 in0.0 mm 0.00 in0.0 mm
05:50 AM 46.5°F8.1°C 40.7°F4.8°C 80% 5.2 mph S8.4 kmh S 7.1 mph11.4 kmh 29.97 in1014.9 mb 0.00 in0.0 mm 0.00 in0.0 mm 0.00 in0.0 mm
05:55 AM 46.5°F8.1°C 40.7°F4.8°C 80% 5.3 mph S8.5 kmh S 7.1 mph11.4 kmh 29.97 in1014.9 mb 0.00 in0.0 mm 0.00 in0.0 mm 0.00 in0.0 mm
06:00 AM 46.5°F8.1°C 41.0°F5.0°C 81% 4.8 mph S7.7 kmh S 7.1 mph11.4 kmh 29.97 in1014.9 mb 0.00 in0.0 mm 0.00 in0.0 mm 0.00 in0.0 mm
06:05 AM 46.5°F8.1°C 41.0°F5.0°C 81% 3.5 mph SSW5.6 kmh SSW 3.6 mph5.8 kmh 29.97 in1014.9 mb 0.00 in0.0 mm 0.00 in0.0 mm 0.00 in0.0 mm
06:10 AM 46.5°F8.1°C 41.0°F5.0°C 81% 5.4 mph SW8.7 kmh SW 7.4 mph11.9 kmh 29.97 in1014.9 mb 0.00 in0.0 mm 0.00 in0.0 mm 0.00 in0.0 mm
06:15 AM 46.5°F8.1°C 41.3°F5.2°C 82% 6.0 mph SW9.7 kmh SW 7.4 mph11.9 kmh 29.97 in1014.9 mb 0.00 in0.0 mm 0.00 in0.0 mm 0.00 in0.0 mm
06:20 AM 46.5°F8.1°C 41.3°F5.2°C 82% 5.6 mph SSW9.0 kmh SSW 7.4 mph11.9 kmh 29.97 in1014.9 mb 0.00 in0.0 mm 0.00 in0.0 mm 0.00 in0.0 mm
06:25 AM 46.7°F8.2°C 41.5°F5.3°C 82% 5.8 mph S9.3 kmh S 8.0 mph12.9 kmh 29.97 in1014.9 mb 0.00 in0.0 mm 0.00 in0.0 mm 0.00 in0.0 mm
06:30 AM 46.7°F8.2°C 41.5°F5.3°C 82% 5.9 mph S9.5 kmh S 8.0 mph12.9 kmh 29.97 in1014.9 mb 0.00 in0.0 mm 0.00 in0.0 mm 0.00 in0.0 mm
06:35 AM 46.7°F8.2°C 41.5°F5.3°C 82% 5.0 mph S8.0 kmh S 6.2 mph10.0 kmh 29.97 in1014.9 mb 0.00 in0.0 mm 0.00 in0.0 mm 0.00 in0.0 mm
06:40 AM 46.7°F8.2°C 41.5°F5.3°C 82% 4.7 mph S7.6 kmh S 6.5 mph10.5 kmh 29.97 in1014.9 mb 0.00 in0.0 mm 0.00 in0.0 mm 0.00 in0.0 mm
06:45 AM 46.7°F8.2°C 41.8°F5.4°C 83% 4.9 mph SSW7.9 kmh SSW 6.5 mph10.5 kmh 29.97 in1014.9 mb 0.00 in0.0 mm 0.00 in0.0 mm 0.00 in0.0 mm
06:50 AM 46.5°F8.1°C 41.6°F5.3°C 83% 5.1 mph SSW8.2 kmh SSW 7.1 mph11.4 kmh 29.97 in1014.9 mb 0.00 in0.0 mm 0.00 in0.0 mm 0.00 in0.0 mm
06:55 AM 46.5°F8.1°C 41.6°F5.3°C 83% 5.1 mph SSW8.2 kmh SSW 7.1 mph11.4 kmh 29.97 in1014.9 mb 0.00 in0.0 mm 0.00 in0.0 mm 0.00 in0.0 mm
07:00 AM 46.5°F8.1°C 41.3°F5.2°C 82% 5.9 mph S9.5 kmh S 7.1 mph11.4 kmh 29.97 in1014.9 mb 0.00 in0.0 mm 0.00 in0.0 mm 0.00 in0.0 mm
07:05 AM 46.3°F7.9°C 41.1°F5.1°C 82% 6.1 mph S9.8 kmh S 7.4 mph11.9 kmh 29.97 in1014.9 mb 0.00 in0.0 mm 0.00 in0.0 mm 0.00 in0.0 mm
07:10 AM 46.1°F7.8°C 41.3°F5.2°C 83% 6.0 mph S9.7 kmh S 7.4 mph11.9 kmh 29.97 in1014.9 mb 0.00 in0.0 mm 0.00 in0.0 mm 0.00 in0.0 mm
07:15 AM 46.1°F7.8°C 41.3°F5.2°C 83% 4.7 mph SSW7.6 kmh SSW 7.4 mph11.9 kmh 29.97 in1014.9 mb 0.00 in0.0 mm 0.00 in0.0 mm 0.00 in0.0 mm
07:20 AM 46.1°F7.8°C 41.3°F5.2°C 83% 4.9 mph SW7.9 kmh SW 10.7 mph17.2 kmh 29.97 in1014.9 mb 0.00 in0.0 mm 0.00 in0.0 mm 0.00 in0.0 mm
07:25 AM 46.1°F7.8°C 41.3°F5.2°C 83% 6.3 mph SW10.1 kmh SW 10.7 mph17.2 kmh 29.97 in1014.9 mb 0.00 in0.0 mm 0.00 in0.0 mm 0.00 in0.0 mm
07:30 AM 46.3°F7.9°C 41.4°F5.2°C 83% 6.1 mph S9.8 kmh S 9.5 mph15.3 kmh 29.97 in1014.9 mb 0.00 in0.0 mm 0.00 in0.0 mm 0.00 in0.0 mm
07:35 AM 46.3°F7.9°C 41.4°F5.2°C 83% 6.5 mph S10.5 kmh S 9.8 mph15.8 kmh 29.97 in1014.9 mb 0.00 in0.0 mm 0.00 in0.0 mm 0.00 in0.0 mm
07:40 AM 46.3°F7.9°C 41.7°F5.4°C 84% 5.2 mph SSW8.4 kmh SSW 9.8 mph15.8 kmh 29.97 in1014.9 mb 0.00 in0.0 mm 0.00 in0.0 mm 0.00 in0.0 mm
07:45 AM 46.5°F8.1°C 41.9°F5.5°C 84% 4.5 mph SSW7.2 kmh SSW 6.0 mph9.7 kmh 29.97 in1014.9 mb 0.00 in0.0 mm 0.00 in0.0 mm 0.00 in0.0 mm
07:50 AM 46.5°F8.1°C 41.9°F5.5°C 84% 5.1 mph SW8.2 kmh SW 9.5 mph15.3 kmh 29.97 in1014.9 mb 0.00 in0.0 mm 0.00 in0.0 mm 0.00 in0.0 mm
07:55 AM 46.7°F8.2°C 42.1°F5.6°C 84% 6.0 mph SW9.7 kmh SW 9.5 mph15.3 kmh 29.97 in1014.9 mb 0.00 in0.0 mm 0.00 in0.0 mm 0.00 in0.0 mm
08:00 AM 46.8°F8.2°C 42.3°F5.7°C 84% 5.9 mph SSW9.5 kmh SSW 8.0 mph12.9 kmh 29.97 in1014.9 mb 0.00 in0.0 mm 0.00 in0.0 mm 0.00 in0.0 mm
08:05 AM 46.8°F8.2°C 42.3°F5.7°C 84% 4.9 mph S7.9 kmh S 8.0 mph12.9 kmh 29.97 in1014.9 mb 0.00 in0.0 mm 0.00 in0.0 mm 0.00 in0.0 mm
08:10 AM 47.2°F8.4°C 42.3°F5.7°C 83% 5.4 mph S8.7 kmh S 9.8 mph15.8 kmh 29.97 in1014.9 mb 0.00 in0.0 mm 0.00 in0.0 mm 0.00 in0.0 mm
08:15 AM 47.4°F8.6°C 42.5°F5.8°C 83% 5.4 mph S8.7 kmh S 9.8 mph15.8 kmh 29.97 in1014.9 mb 0.00 in0.0 mm 0.00 in0.0 mm 0.00 in0.0 mm
08:20 AM 47.4°F8.6°C 42.5°F5.8°C 83% 5.3 mph S8.5 kmh S 8.3 mph13.4 kmh 29.97 in1014.9 mb 0.00 in0.0 mm 0.00 in0.0 mm 0.00 in0.0 mm
08:25 AM 47.6°F8.7°C 42.7°F5.9°C 83% 4.4 mph S7.1 kmh S 8.3 mph13.4 kmh 29.97 in1014.9 mb 0.00 in0.0 mm 0.00 in0.0 mm 0.00 in0.0 mm
08:30 AM 47.6°F8.7°C 42.7°F5.9°C 83% 3.9 mph SSW6.3 kmh SSW 5.4 mph8.7 kmh 29.97 in1014.9 mb 0.00 in0.0 mm 0.00 in0.0 mm 0.00 in0.0 mm
08:35 AM 47.6°F8.7°C 42.7°F5.9°C 83% 4.5 mph S7.2 kmh S 5.7 mph9.2 kmh 29.97 in1014.9 mb 0.00 in0.0 mm 0.00 in0.0 mm 0.00 in0.0 mm
08:40 AM 47.8°F8.8°C 42.8°F6.0°C 83% 4.8 mph SSW7.7 kmh SSW 8.6 mph13.8 kmh 30.00 in1015.9 mb 0.00 in0.0 mm 0.00 in0.0 mm 0.00 in0.0 mm
08:45 AM 47.9°F8.8°C 43.0°F6.1°C 83% 5.3 mph SSW8.5 kmh SSW 8.6 mph13.8 kmh 30.00 in1015.9 mb 0.00 in0.0 mm 0.00 in0.0 mm 0.00 in0.0 mm
08:50 AM 48.1°F8.9°C 43.2°F6.2°C 83% 6.6 mph S10.6 kmh S 7.7 mph12.4 kmh 30.00 in1015.9 mb 0.00 in0.0 mm 0.00 in0.0 mm 0.00 in0.0 mm
08:55 AM 48.1°F8.9°C 43.2°F6.2°C 83% 6.9 mph S11.1 kmh S 8.3 mph13.4 kmh 30.00 in1015.9 mb 0.00 in0.0 mm 0.00 in0.0 mm 0.00 in0.0 mm
09:00 AM 48.5°F9.2°C 43.2°F6.2°C 82% 6.2 mph S10.0 kmh S 8.3 mph13.4 kmh 30.00 in1015.9 mb 0.00 in0.0 mm 0.00 in0.0 mm 0.00 in0.0 mm
09:05 AM 48.5°F9.2°C 43.2°F6.2°C 82% 5.5 mph SSW8.9 kmh SSW 8.3 mph13.4 kmh 30.00 in1015.9 mb 0.00 in0.0 mm 0.00 in0.0 mm 0.00 in0.0 mm
09:10 AM 49.2°F9.6°C 43.6°F6.4°C 81% 6.3 mph SSW10.1 kmh SSW 10.1 mph16.3 kmh 30.00 in1015.9 mb 0.00 in0.0 mm 0.00 in0.0 mm 0.00 in0.0 mm
09:15 AM 49.4°F9.7°C 43.5°F6.4°C 80% 6.5 mph S10.5 kmh S 10.1 mph16.3 kmh 30.00 in1015.9 mb 0.00 in0.0 mm 0.00 in0.0 mm 0.00 in0.0 mm
09:20 AM 49.5°F9.7°C 43.6°F6.4°C 80% 7.5 mph SSW12.1 kmh SSW 11.3 mph18.2 kmh 30.00 in1015.9 mb 0.00 in0.0 mm 0.00 in0.0 mm 0.00 in0.0 mm
09:25 AM 49.7°F9.8°C 43.5°F6.4°C 79% 7.8 mph SSW12.6 kmh SSW 11.3 mph18.2 kmh 30.00 in1015.9 mb 0.00 in0.0 mm 0.00 in0.0 mm 0.00 in0.0 mm
09:30 AM 49.9°F9.9°C 43.3°F6.3°C 78% 6.9 mph SSW11.1 kmh SSW 10.7 mph17.2 kmh 30.00 in1015.9 mb 0.00 in0.0 mm 0.00 in0.0 mm 0.00 in0.0 mm
09:35 AM 49.9°F9.9°C 43.3°F6.3°C 78% 6.4 mph SSW10.3 kmh SSW 9.2 mph14.8 kmh 30.00 in1015.9 mb 0.00 in0.0 mm 0.00 in0.0 mm 0.00 in0.0 mm
09:40 AM 50.1°F10.1°C 43.5°F6.4°C 78% 5.8 mph SSW9.3 kmh SSW 9.2 mph14.8 kmh 30.00 in1015.9 mb 0.00 in0.0 mm 0.00 in0.0 mm 0.00 in0.0 mm
09:45 AM 50.1°F10.1°C 43.2°F6.2°C 77% 5.6 mph SSW9.0 kmh SSW 7.4 mph11.9 kmh 30.00 in1015.9 mb 0.00 in0.0 mm 0.00 in0.0 mm 0.00 in0.0 mm
09:50 AM 50.1°F10.1°C 43.2°F6.2°C 77% 5.8 mph S9.3 kmh S 7.4 mph11.9 kmh 30.00 in1015.9 mb 0.00 in0.0 mm 0.00 in0.0 mm 0.00 in0.0 mm
09:55 AM 50.5°F10.3°C 43.5°F6.4°C 77% 5.9 mph SSW9.5 kmh SSW 9.5 mph15.3 kmh 30.00 in1015.9 mb 0.00 in0.0 mm 0.00 in0.0 mm 0.00 in0.0 mm
10:00 AM 51.5°F10.8°C 44.2°F6.8°C 76% 6.9 mph SSW11.1 kmh SSW 12.8 mph20.6 kmh 30.00 in1015.9 mb 0.00 in0.0 mm 0.00 in0.0 mm 0.00 in0.0 mm
10:05 AM 52.1°F11.2°C 44.4°F6.9°C 75% 6.8 mph SW10.9 kmh SW 12.8 mph20.6 kmh 30.00 in1015.9 mb 0.00 in0.0 mm 0.00 in0.0 mm 0.00 in0.0 mm
10:10 AM 52.6°F11.4°C 44.6°F7.0°C 74% 6.4 mph SW10.3 kmh SW 10.1 mph16.3 kmh 30.00 in1015.9 mb 0.00 in0.0 mm 0.00 in0.0 mm 0.00 in0.0 mm
10:15 AM 52.8°F11.6°C 44.7°F7.1°C 74% 6.3 mph SW10.1 kmh SW 10.1 mph16.3 kmh 30.00 in1015.9 mb 0.00 in0.0 mm 0.00 in0.0 mm 0.00 in0.0 mm
10:20 AM 52.8°F11.6°C 44.4°F6.9°C 73% 7.5 mph SW12.1 kmh SW 16.4 mph26.4 kmh 30.00 in1015.9 mb 0.00 in0.0 mm 0.00 in0.0 mm 0.00 in0.0 mm
10:25 AM 53.0°F11.7°C 44.2°F6.8°C 72% 8.0 mph SW12.9 kmh SW 16.4 mph26.4 kmh 30.00 in1015.9 mb 0.00 in0.0 mm 0.00 in0.0 mm 0.00 in0.0 mm
10:30 AM 53.0°F11.7°C 44.2°F6.8°C 72% 6.6 mph SW10.6 kmh SW 14.0 mph22.5 kmh 30.00 in1015.9 mb 0.00 in0.0 mm 0.00 in0.0 mm 0.00 in0.0 mm
10:35 AM 52.6°F11.4°C 43.5°F6.4°C 71% 7.3 mph SW11.7 kmh SW 10.7 mph17.2 kmh 30.00 in1015.9 mb 0.00 in0.0 mm 0.00 in0.0 mm 0.00 in0.0 mm
10:40 AM 52.1°F11.2°C 43.0°F6.1°C 71% 7.1 mph SW11.4 kmh SW 10.7 mph17.2 kmh 30.03 in1016.9 mb 0.00 in0.0 mm 0.00 in0.0 mm 0.00 in0.0 mm
10:45 AM 51.9°F11.1°C 42.8°F6.0°C 71% 6.9 mph SW11.1 kmh SW 9.2 mph14.8 kmh 30.03 in1016.9 mb 0.00 in0.0 mm 0.00 in0.0 mm 0.00 in0.0 mm
10:50 AM 51.9°F11.1°C 42.8°F6.0°C 71% 7.2 mph SW11.6 kmh SW 10.1 mph16.3 kmh 30.03 in1016.9 mb 0.00 in0.0 mm 0.00 in0.0 mm 0.00 in0.0 mm
10:55 AM 51.7°F10.9°C 42.6°F5.9°C 71% 5.8 mph SW9.3 kmh SW 10.1 mph16.3 kmh 30.03 in1016.9 mb 0.00 in0.0 mm 0.00 in0.0 mm 0.00 in0.0 mm
11:00 AM 51.7°F10.9°C 42.6°F5.9°C 71% 5.3 mph SSW8.5 kmh SSW 7.4 mph11.9 kmh 30.03 in1016.9 mb 0.00 in0.0 mm 0.00 in0.0 mm 0.00 in0.0 mm
11:05 AM 51.9°F11.1°C 42.8°F6.0°C 71% 7.0 mph SSW11.3 kmh SSW 14.3 mph23.0 kmh 30.03 in1016.9 mb 0.00 in0.0 mm 0.00 in0.0 mm 0.00 in0.0 mm
11:10 AM 52.3°F11.3°C 43.1°F6.2°C 71% 6.9 mph SSW11.1 kmh SSW 14.3 mph23.0 kmh 30.03 in1016.9 mb 0.00 in0.0 mm 0.00 in0.0 mm 0.00 in0.0 mm
11:15 AM 52.4°F11.3°C 43.3°F6.3°C 71% 7.1 mph SSW11.4 kmh SSW 14.3 mph23.0 kmh 30.03 in1016.9 mb 0.00 in0.0 mm 0.00 in0.0 mm 0.00 in0.0 mm
11:20 AM 53.5°F11.9°C 44.3°F6.8°C 71% 8.4 mph SW13.5 kmh SW 13.1 mph21.1 kmh 30.03 in1016.9 mb 0.00 in0.0 mm 0.00 in0.0 mm 0.00 in0.0 mm
11:25 AM 54.4°F12.4°C 44.8°F7.1°C 70% 9.9 mph SW15.9 kmh SW 13.4 mph21.6 kmh 30.03 in1016.9 mb 0.00 in0.0 mm 0.00 in0.0 mm 0.00 in0.0 mm
11:30 AM 54.6°F12.6°C 44.6°F7.0°C 69% 8.3 mph SW13.4 kmh SW 13.4 mph21.6 kmh 30.03 in1016.9 mb 0.00 in0.0 mm 0.00 in0.0 mm 0.00 in0.0 mm
11:35 AM 55.0°F12.8°C 45.0°F7.2°C 69% 7.0 mph SW11.3 kmh SW 11.6 mph18.7 kmh 30.03 in1016.9 mb 0.00 in0.0 mm 0.00 in0.0 mm 0.00 in0.0 mm
11:40 AM 55.5°F13.1°C 45.1°F7.3°C 68% 8.6 mph SW13.8 kmh SW 12.8 mph20.6 kmh 30.03 in1016.9 mb 0.00 in0.0 mm 0.00 in0.0 mm 0.00 in0.0 mm
11:45 AM 55.3°F12.9°C 44.5°F6.9°C 67% 9.8 mph WSW15.8 kmh WSW 12.8 mph20.6 kmh 30.03 in1016.9 mb 0.00 in0.0 mm 0.00 in0.0 mm 0.00 in0.0 mm
11:50 AM 55.1°F12.8°C 44.4°F6.9°C 67% 8.9 mph SW14.3 kmh SW 12.8 mph20.6 kmh 30.03 in1016.9 mb 0.00 in0.0 mm 0.00 in0.0 mm 0.00 in0.0 mm
11:55 AM 55.0°F12.8°C 44.2°F6.8°C 67% 7.5 mph SW12.1 kmh SW 12.8 mph20.6 kmh 30.03 in1016.9 mb 0.00 in0.0 mm 0.00 in0.0 mm 0.00 in0.0 mm
12:00 PM 54.6°F12.6°C 43.8°F6.6°C 67% 7.3 mph SW11.7 kmh SW 12.8 mph20.6 kmh 30.03 in1016.9 mb 0.00 in0.0 mm 0.00 in0.0 mm 0.00 in0.0 mm
12:05 PM 54.6°F12.6°C 43.8°F6.6°C 67% 6.9 mph SW11.1 kmh SW 10.1 mph16.3 kmh 30.03 in1016.9 mb 0.00 in0.0 mm 0.00 in0.0 mm 0.00 in0.0 mm
12:10 PM 54.4°F12.4°C 43.7°F6.5°C 67% 8.2 mph SW13.2 kmh SW 9.8 mph15.8 kmh 30.03 in1016.9 mb 0.00 in0.0 mm 0.00 in0.0 mm 0.00 in0.0 mm
12:15 PM 54.4°F12.4°C 43.7°F6.5°C 67% 6.8 mph SSW10.9 kmh SSW 9.8 mph15.8 kmh 30.03 in1016.9 mb 0.00 in0.0 mm 0.00 in0.0 mm 0.00 in0.0 mm
12:20 PM 54.6°F12.6°C 43.8°F6.6°C 67% 7.5 mph SW12.1 kmh SW 11.6 mph18.7 kmh 30.03 in1016.9 mb 0.00 in0.0 mm 0.00 in0.0 mm 0.00 in0.0 mm
12:25 PM 54.4°F12.4°C 43.7°F6.5°C 67% 9.8 mph SSW15.8 kmh SSW 11.6 mph18.7 kmh 30.03 in1016.9 mb 0.00 in0.0 mm 0.00 in0.0 mm 0.00 in0.0 mm
12:30 PM 54.4°F12.4°C 43.7°F6.5°C 67% 9.9 mph SSW15.9 kmh SSW 11.6 mph18.7 kmh 30.03 in1016.9 mb 0.00 in0.0 mm 0.00 in0.0 mm 0.00 in0.0 mm
12:35 PM 54.4°F12.4°C 43.7°F6.5°C 67% 7.7 mph S12.4 kmh S 8.3 mph13.4 kmh 30.03 in1016.9 mb 0.00 in0.0 mm 0.00 in0.0 mm 0.00 in0.0 mm
12:40 PM 54.2°F12.3°C 43.5°F6.4°C 67% 8.5 mph S13.7 kmh S 11.3 mph18.2 kmh 30.03 in1016.9 mb 0.00 in0.0 mm 0.00 in0.0 mm 0.00 in0.0 mm
12:45 PM 54.0°F12.2°C 43.3°F6.3°C 67% 9.1 mph SSW14.6 kmh SSW 11.3 mph18.2 kmh 30.03 in1016.9 mb 0.00 in0.0 mm 0.00 in0.0 mm 0.00 in0.0 mm
12:50 PM 53.9°F12.2°C 43.2°F6.2°C 67% 8.4 mph SW13.5 kmh SW 11.3 mph18.2 kmh 30.03 in1016.9 mb 0.00 in0.0 mm 0.00 in0.0 mm 0.00 in0.0 mm
12:55 PM 53.7°F12.1°C 43.4°F6.3°C 68% 8.0 mph SW12.9 kmh SW 10.7 mph17.2 kmh 30.03 in1016.9 mb 0.00 in0.0 mm 0.00 in0.0 mm 0.00 in0.0 mm
01:00 PM 53.3°F11.8°C 43.0°F6.1°C 68% 8.6 mph SSW13.8 kmh SSW 10.7 mph17.2 kmh 30.03 in1016.9 mb 0.00 in0.0 mm 0.00 in0.0 mm 0.00 in0.0 mm
01:05 PM 53.2°F11.8°C 43.2°F6.2°C 69% 9.1 mph S14.6 kmh S 11.3 mph18.2 kmh 30.03 in1016.9 mb 0.00 in0.0 mm 0.00 in0.0 mm 0.00 in0.0 mm
01:10 PM 52.8°F11.6°C 42.9°F6.1°C 69% 10.9 mph S17.5 kmh S 17.3 mph27.8 kmh 30.03 in1016.9 mb 0.00 in0.0 mm 0.00 in0.0 mm 0.00 in0.0 mm
01:15 PM 52.4°F11.3°C 42.9°F6.1°C 70% 10.8 mph S17.4 kmh S 17.3 mph27.8 kmh 30.03 in1016.9 mb 0.00 in0.0 mm 0.00 in0.0 mm 0.00 in0.0 mm
01:20 PM 52.3°F11.3°C 43.1°F6.2°C 71% 9.6 mph S15.4 kmh S 11.6 mph18.7 kmh 30.03 in1016.9 mb 0.00 in0.0 mm 0.00 in0.0 mm 0.00 in0.0 mm
01:25 PM 52.3°F11.3°C 43.1°F6.2°C 71% 9.6 mph S15.4 kmh S 11.6 mph18.7 kmh 30.03 in1016.9 mb 0.00 in0.0 mm 0.00 in0.0 mm 0.00 in0.0 mm
01:30 PM 52.1°F11.2°C 43.0°F6.1°C 71% 9.3 mph S15.0 kmh S 11.3 mph18.2 kmh 30.03 in1016.9 mb 0.00 in0.0 mm 0.00 in0.0 mm 0.00 in0.0 mm
01:35 PM 52.1°F11.2°C 43.3°F6.3°C 72% 10.7 mph SSW17.2 kmh SSW 14.0 mph22.5 kmh 30.03 in1016.9 mb 0.00 in0.0 mm 0.00 in0.0 mm 0.00 in0.0 mm
01:40 PM 52.1°F11.2°C 43.3°F6.3°C 72% 10.0 mph SW16.1 kmh SW 14.0 mph22.5 kmh 30.03 in1016.9 mb 0.00 in0.0 mm 0.00 in0.0 mm 0.00 in0.0 mm
01:45 PM 52.1°F11.2°C 43.3°F6.3°C 72% 8.4 mph SSW13.5 kmh SSW 9.8 mph15.8 kmh 30.03 in1016.9 mb 0.00 in0.0 mm 0.00 in0.0 mm 0.00 in0.0 mm
01:50 PM 52.3°F11.3°C 43.5°F6.4°C 72% 8.6 mph S13.8 kmh S 11.6 mph18.7 kmh 30.03 in1016.9 mb 0.00 in0.0 mm 0.00 in0.0 mm 0.00 in0.0 mm
01:55 PM 52.4°F11.3°C 43.7°F6.5°C 72% 8.4 mph S13.5 kmh S 11.6 mph18.7 kmh 30.03 in1016.9 mb 0.00 in0.0 mm 0.00 in0.0 mm 0.00 in0.0 mm
02:00 PM 52.6°F11.4°C 43.5°F6.4°C 71% 7.8 mph SW12.6 kmh SW 11.6 mph18.7 kmh 30.03 in1016.9 mb 0.00 in0.0 mm 0.00 in0.0 mm 0.00 in0.0 mm
02:05 PM 52.6°F11.4°C 43.5°F6.4°C 71% 7.9 mph SW12.7 kmh SW 11.3 mph18.2 kmh 30.03 in1016.9 mb 0.00 in0.0 mm 0.00 in0.0 mm 0.00 in0.0 mm
02:10 PM 52.6°F11.4°C 43.5°F6.4°C 71% 8.2 mph SW13.2 kmh SW 11.3 mph18.2 kmh 30.03 in1016.9 mb 0.00 in0.0 mm 0.00 in0.0 mm 0.00 in0.0 mm
02:15 PM 52.4°F11.3°C 43.7°F6.5°C 72% 7.8 mph SW12.6 kmh SW 10.1 mph16.3 kmh 30.03 in1016.9 mb 0.00 in0.0 mm 0.00 in0.0 mm 0.00 in0.0 mm
02:20 PM 52.3°F11.3°C 43.5°F6.4°C 72% 7.3 mph SSW11.7 kmh SSW 10.4 mph16.7 kmh 30.03 in1016.9 mb 0.00 in0.0 mm 0.00 in0.0 mm 0.00 in0.0 mm
02:25 PM 52.1°F11.2°C 43.3°F6.3°C 72% 7.2 mph SW11.6 kmh SW 10.4 mph16.7 kmh 30.03 in1016.9 mb 0.00 in0.0 mm 0.00 in0.0 mm 0.00 in0.0 mm
02:30 PM 51.7°F10.9°C 43.3°F6.3°C 73% 8.7 mph WSW14.0 kmh WSW 10.4 mph16.7 kmh 30.03 in1016.9 mb 0.00 in0.0 mm 0.00 in0.0 mm 0.00 in0.0 mm
02:35 PM 51.7°F10.9°C 43.3°F6.3°C 73% 7.7 mph SW12.4 kmh SW 9.8 mph15.8 kmh 30.03 in1016.9 mb 0.00 in0.0 mm 0.00 in0.0 mm 0.00 in0.0 mm
02:40 PM 51.3°F10.7°C 43.0°F6.1°C 73% 6.7 mph SSW10.8 kmh SSW 9.8 mph15.8 kmh 30.03 in1016.9 mb 0.00 in0.0 mm 0.00 in0.0 mm 0.00 in0.0 mm
02:45 PM 51.3°F10.7°C 43.0°F6.1°C 73% 5.5 mph SSW8.9 kmh SSW 8.0 mph12.9 kmh 30.03 in1016.9 mb 0.00 in0.0 mm 0.00 in0.0 mm 0.00 in0.0 mm
02:50 PM 51.2°F10.7°C 43.2°F6.2°C 74% 6.9 mph SSW11.1 kmh SSW 12.2 mph19.6 kmh 30.03 in1016.9 mb 0.00 in0.0 mm 0.00 in0.0 mm 0.00 in0.0 mm
02:55 PM 51.2°F10.7°C 43.2°F6.2°C 74% 7.8 mph S12.6 kmh S 12.2 mph19.6 kmh 30.03 in1016.9 mb 0.00 in0.0 mm 0.00 in0.0 mm 0.00 in0.0 mm
03:00 PM 50.8°F10.4°C 42.8°F6.0°C 74% 8.7 mph SW14.0 kmh SW 13.1 mph21.1 kmh 30.03 in1016.9 mb 0.00 in0.0 mm 0.00 in0.0 mm 0.00 in0.0 mm
03:05 PM 50.8°F10.4°C 42.8°F6.0°C 74% 8.5 mph SW13.7 kmh SW 13.1 mph21.1 kmh 30.03 in1016.9 mb 0.00 in0.0 mm 0.00 in0.0 mm 0.00 in0.0 mm
03:10 PM 50.8°F10.4°C 42.8°F6.0°C 74% 7.5 mph SSW12.1 kmh SSW 11.6 mph18.7 kmh 30.03 in1016.9 mb 0.00 in0.0 mm 0.00 in0.0 mm 0.00 in0.0 mm
03:15 PM 50.8°F10.4°C 42.8°F6.0°C 74% 8.1 mph SSW13.0 kmh SSW 13.7 mph22.0 kmh 30.03 in1016.9 mb 0.00 in0.0 mm 0.00 in0.0 mm 0.00 in0.0 mm
03:20 PM 50.6°F10.3°C 43.0°F6.1°C 75% 8.8 mph SSW14.2 kmh SSW 13.7 mph22.0 kmh 30.03 in1016.9 mb 0.00 in0.0 mm 0.00 in0.0 mm 0.00 in0.0 mm
03:25 PM 50.6°F10.3°C 43.0°F6.1°C 75% 8.8 mph S14.2 kmh S 13.4 mph21.6 kmh 30.03 in1016.9 mb 0.00 in0.0 mm 0.00 in0.0 mm 0.00 in0.0 mm
03:30 PM 50.5°F10.3°C 42.8°F6.0°C 75% 8.4 mph S13.5 kmh S 13.4 mph21.6 kmh 30.03 in1016.9 mb 0.00 in0.0 mm 0.00 in0.0 mm 0.00 in0.0 mm
03:35 PM 50.5°F10.3°C 43.2°F6.2°C 76% 7.4 mph S11.9 kmh S 11.3 mph18.2 kmh 30.03 in1016.9 mb 0.00 in0.0 mm 0.00 in0.0 mm 0.00 in0.0 mm
03:40 PM 50.5°F10.3°C 43.2°F6.2°C 76% 7.5 mph S12.1 kmh S 16.1 mph25.9 kmh 30.03 in1016.9 mb 0.00 in0.0 mm 0.00 in0.0 mm 0.00 in0.0 mm
03:45 PM 50.3°F10.2°C 43.0°F6.1°C 76% 8.1 mph SSW13.0 kmh SSW 16.1 mph25.9 kmh 30.03 in1016.9 mb 0.00 in0.0 mm 0.00 in0.0 mm 0.00 in0.0 mm
03:50 PM 50.3°F10.2°C 43.0°F6.1°C 76% 8.5 mph SSW13.7 kmh SSW 13.1 mph21.1 kmh 30.03 in1016.9 mb 0.00 in0.0 mm 0.00 in0.0 mm 0.00 in0.0 mm
03:55 PM 50.3°F10.2°C 43.0°F6.1°C 76% 9.3 mph SSW15.0 kmh SSW 17.0 mph27.4 kmh 30.03 in1016.9 mb 0.00 in0.0 mm 0.00 in0.0 mm 0.00 in0.0 mm
04:00 PM 50.1°F10.1°C 42.8°F6.0°C 76% 9.2 mph SSW14.8 kmh SSW 17.0 mph27.4 kmh 30.03 in1016.9 mb 0.00 in0.0 mm 0.00 in0.0 mm 0.00 in0.0 mm
04:05 PM 50.1°F10.1°C 42.8°F6.0°C 76% 7.8 mph SSW12.6 kmh SSW 10.1 mph16.3 kmh 30.03 in1016.9 mb 0.00 in0.0 mm 0.00 in0.0 mm 0.00 in0.0 mm
04:10 PM 50.1°F10.1°C 42.8°F6.0°C 76% 8.4 mph SSW13.5 kmh SSW 13.4 mph21.6 kmh 30.03 in1016.9 mb 0.00 in0.0 mm 0.00 in0.0 mm 0.00 in0.0 mm
04:15 PM 50.1°F10.1°C 42.8°F6.0°C 76% 9.7 mph S15.6 kmh S 13.4 mph21.6 kmh 30.03 in1016.9 mb 0.00 in0.0 mm 0.00 in0.0 mm 0.00 in0.0 mm
04:20 PM 50.1°F10.1°C 42.8°F6.0°C 76% 9.9 mph SSW15.9 kmh SSW 13.4 mph21.6 kmh 30.03 in1016.9 mb 0.00 in0.0 mm 0.00 in0.0 mm 0.00 in0.0 mm
04:25 PM 50.1°F10.1°C 42.8°F6.0°C 76% 10.0 mph SSW16.1 kmh SSW 16.1 mph25.9 kmh 30.03 in1016.9 mb 0.00 in0.0 mm 0.00 in0.0 mm 0.00 in0.0 mm
04:30 PM 50.1°F10.1°C 42.8°F6.0°C 76% 11.8 mph SSW19.0 kmh SSW 16.7 mph26.9 kmh 30.03 in1016.9 mb 0.00 in0.0 mm 0.00 in0.0 mm 0.00 in0.0 mm
04:35 PM 49.9°F9.9°C 43.0°F6.1°C 77% 11.0 mph SSW17.7 kmh SSW 16.7 mph26.9 kmh 30.03 in1016.9 mb 0.00 in0.0 mm 0.00 in0.0 mm 0.00 in0.0 mm
04:40 PM 49.9°F9.9°C 43.0°F6.1°C 77% 9.2 mph SSW14.8 kmh SSW 12.5 mph20.1 kmh 30.03 in1016.9 mb 0.00 in0.0 mm 0.00 in0.0 mm 0.00 in0.0 mm
04:45 PM 49.9°F9.9°C 43.0°F6.1°C 77% 8.3 mph SSW13.4 kmh SSW 13.1 mph21.1 kmh 30.03 in1016.9 mb 0.00 in0.0 mm 0.00 in0.0 mm 0.00 in0.0 mm
04:50 PM 49.9°F9.9°C 43.0°F6.1°C 77% 7.9 mph S12.7 kmh S 13.1 mph21.1 kmh 30.03 in1016.9 mb 0.00 in0.0 mm 0.00 in0.0 mm 0.00 in0.0 mm
04:55 PM 49.9°F9.9°C 43.0°F6.1°C 77% 7.5 mph SSW12.1 kmh SSW 11.3 mph18.2 kmh 30.03 in1016.9 mb 0.00 in0.0 mm 0.00 in0.0 mm 0.00 in0.0 mm
05:00 PM 49.7°F9.8°C 42.8°F6.0°C 77% 8.7 mph S14.0 kmh S 13.1 mph21.1 kmh 30.03 in1016.9 mb 0.00 in0.0 mm 0.00 in0.0 mm 0.00 in0.0 mm
05:05 PM 49.7°F9.8°C 42.8°F6.0°C 77% 10.0 mph S16.1 kmh S 13.1 mph21.1 kmh 30.03 in1016.9 mb 0.00 in0.0 mm 0.00 in0.0 mm 0.00 in0.0 mm
05:10 PM 49.7°F9.8°C 43.1°F6.2°C 78% 8.8 mph SSW14.2 kmh SSW 11.3 mph18.2 kmh 30.03 in1016.9 mb 0.00 in0.0 mm 0.00 in0.0 mm 0.00 in0.0 mm
05:15 PM 49.5°F9.7°C 43.0°F6.1°C 78% 9.3 mph S15.0 kmh S 12.8 mph20.6 kmh 30.03 in1016.9 mb 0.00 in0.0 mm 0.00 in0.0 mm 0.00 in0.0 mm
05:20 PM 49.5°F9.7°C 43.0°F6.1°C 78% 10.3 mph S16.6 kmh S 13.4 mph21.6 kmh 30.03 in1016.9 mb 0.00 in0.0 mm 0.00 in0.0 mm 0.00 in0.0 mm
05:25 PM 49.5°F9.7°C 43.0°F6.1°C 78% 10.2 mph S16.4 kmh S 14.0 mph22.5 kmh 30.03 in1016.9 mb 0.00 in0.0 mm 0.00 in0.0 mm 0.00 in0.0 mm
05:30 PM 49.5°F9.7°C 43.0°F6.1°C 78% 11.0 mph S17.7 kmh S 14.0 mph22.5 kmh 30.03 in1016.9 mb 0.00 in0.0 mm 0.00 in0.0 mm 0.00 in0.0 mm
05:35 PM 49.4°F9.7°C 42.8°F6.0°C 78% 11.4 mph SSW18.3 kmh SSW 14.0 mph22.5 kmh 30.03 in1016.9 mb 0.00 in0.0 mm 0.00 in0.0 mm 0.00 in0.0 mm
05:40 PM 49.4°F9.7°C 42.8°F6.0°C 78% 7.9 mph SSW12.7 kmh SSW 10.4 mph16.7 kmh 30.03 in1016.9 mb 0.00 in0.0 mm 0.00 in0.0 mm 0.00 in0.0 mm
05:45 PM 49.4°F9.7°C 43.1°F6.2°C 79% 7.2 mph S11.6 kmh S 10.4 mph16.7 kmh 30.03 in1016.9 mb 0.00 in0.0 mm 0.00 in0.0 mm 0.00 in0.0 mm
05:50 PM 49.4°F9.7°C 43.1°F6.2°C 79% 7.4 mph S11.9 kmh S 10.4 mph16.7 kmh 30.03 in1016.9 mb 0.00 in0.0 mm 0.00 in0.0 mm 0.00 in0.0 mm
05:55 PM 49.4°F9.7°C 43.1°F6.2°C 79% 7.8 mph S12.6 kmh S 10.4 mph16.7 kmh 30.03 in1016.9 mb 0.00 in0.0 mm 0.00 in0.0 mm 0.00 in0.0 mm
06:00 PM 49.2°F9.6°C 43.0°F6.1°C 79% 6.9 mph SSW11.1 kmh SSW 10.4 mph16.7 kmh 30.03 in1016.9 mb 0.00 in0.0 mm 0.00 in0.0 mm 0.00 in0.0 mm
06:05 PM 49.2°F9.6°C 43.0°F6.1°C 79% 6.7 mph S10.8 kmh S 8.3 mph13.4 kmh 30.03 in1016.9 mb 0.00 in0.0 mm 0.00 in0.0 mm 0.00 in0.0 mm
06:10 PM 49.2°F9.6°C 43.0°F6.1°C 79% 7.5 mph S12.1 kmh S 10.1 mph16.3 kmh 30.03 in1016.9 mb 0.00 in0.0 mm 0.00 in0.0 mm 0.00 in0.0 mm
06:15 PM 49.2°F9.6°C 43.0°F6.1°C 79% 7.4 mph S11.9 kmh S 10.1 mph16.3 kmh 30.03 in1016.9 mb 0.00 in0.0 mm 0.00 in0.0 mm 0.00 in0.0 mm
06:20 PM 49.2°F9.6°C 43.3°F6.3°C 80% 6.8 mph S10.9 kmh S 9.5 mph15.3 kmh 30.03 in1016.9 mb 0.00 in0.0 mm 0.00 in0.0 mm 0.00 in0.0 mm
06:25 PM 49.0°F9.4°C 43.1°F6.2°C 80% 7.3 mph S11.7 kmh S 14.0 mph22.5 kmh 30.03 in1016.9 mb 0.00 in0.0 mm 0.00 in0.0 mm 0.00 in0.0 mm
06:30 PM 49.0°F9.4°C 43.1°F6.2°C 80% 6.8 mph S10.9 kmh S 14.0 mph22.5 kmh 30.03 in1016.9 mb 0.00 in0.0 mm 0.00 in0.0 mm 0.00 in0.0 mm
06:35 PM 49.0°F9.4°C 43.1°F6.2°C 80% 6.7 mph S10.8 kmh S 10.1 mph16.3 kmh 30.03 in1016.9 mb 0.00 in0.0 mm 0.00 in0.0 mm 0.00 in0.0 mm
06:40 PM 49.0°F9.4°C 43.1°F6.2°C 80% 7.7 mph S12.4 kmh S 10.1 mph16.3 kmh 30.03 in1016.9 mb 0.00 in0.0 mm 0.00 in0.0 mm 0.00 in0.0 mm
06:45 PM 49.2°F9.6°C 43.3°F6.3°C 80% 8.7 mph S14.0 kmh S 12.2 mph19.6 kmh 30.03 in1016.9 mb 0.00 in0.0 mm 0.00 in0.0 mm 0.00 in0.0 mm
06:50 PM 49.2°F9.6°C 43.3°F6.3°C 80% 9.0 mph SSW14.5 kmh SSW 12.2 mph19.6 kmh 30.03 in1016.9 mb 0.00 in0.0 mm 0.00 in0.0 mm 0.00 in0.0 mm
06:55 PM 49.2°F9.6°C 43.3°F6.3°C 80% 9.9 mph SSW15.9 kmh SSW 11.3 mph18.2 kmh 30.03 in1016.9 mb 0.00 in0.0 mm 0.00 in0.0 mm 0.00 in0.0 mm
07:00 PM 49.2°F9.6°C 43.3°F6.3°C 80% 8.6 mph S13.8 kmh S 11.3 mph18.2 kmh 30.03 in1016.9 mb 0.00 in0.0 mm 0.00 in0.0 mm 0.00 in0.0 mm
07:05 PM 49.2°F9.6°C 43.3°F6.3°C 80% 8.2 mph S13.2 kmh S 10.1 mph16.3 kmh 30.03 in1016.9 mb 0.00 in0.0 mm 0.00 in0.0 mm 0.00 in0.0 mm
07:10 PM 49.2°F9.6°C 43.3°F6.3°C 80% 7.8 mph SSW12.6 kmh SSW 10.1 mph16.3 kmh 30.03 in1016.9 mb 0.00 in0.0 mm 0.00 in0.0 mm 0.00 in0.0 mm
07:15 PM 49.2°F9.6°C 43.3°F6.3°C 80% 7.5 mph S12.1 kmh S 11.3 mph18.2 kmh 30.03 in1016.9 mb 0.00 in0.0 mm 0.00 in0.0 mm 0.00 in0.0 mm
07:20 PM 49.2°F9.6°C 43.3°F6.3°C 80% 7.9 mph S12.7 kmh S 11.3 mph18.2 kmh 30.03 in1016.9 mb 0.00 in0.0 mm 0.00 in0.0 mm 0.00 in0.0 mm
07:25 PM 49.0°F9.4°C 43.1°F6.2°C 80% 8.2 mph S13.2 kmh S 11.3 mph18.2 kmh 30.03 in1016.9 mb 0.00 in0.0 mm 0.00 in0.0 mm 0.00 in0.0 mm
07:30 PM 49.0°F9.4°C 43.1°F6.2°C 80% 7.6 mph S12.2 kmh S 10.4 mph16.7 kmh 30.03 in1016.9 mb 0.00 in0.0 mm 0.00 in0.0 mm 0.00 in0.0 mm
07:35 PM 49.0°F9.4°C 43.1°F6.2°C 80% 6.5 mph S10.5 kmh S 10.4 mph16.7 kmh 30.03 in1016.9 mb 0.00 in0.0 mm 0.00 in0.0 mm 0.00 in0.0 mm
07:40 PM 48.8°F9.3°C 43.3°F6.3°C 81% 7.1 mph S11.4 kmh S 11.6 mph18.7 kmh 30.06 in1017.9 mb 0.00 in0.0 mm 0.00 in0.0 mm 0.00 in0.0 mm
07:45 PM 48.7°F9.3°C 43.1°F6.2°C 81% 7.9 mph S12.7 kmh S 11.6 mph18.7 kmh 30.06 in1017.9 mb 0.00 in0.0 mm 0.00 in0.0 mm 0.00 in0.0 mm
07:50 PM 48.7°F9.3°C 43.1°F6.2°C 81% 7.5 mph S12.1 kmh S 11.6 mph18.7 kmh 30.06 in1017.9 mb 0.00 in0.0 mm 0.00 in0.0 mm 0.00 in0.0 mm
07:55 PM 48.7°F9.3°C 43.1°F6.2°C 81% 6.4 mph S10.3 kmh S 10.1 mph16.3 kmh 30.06 in1017.9 mb 0.00 in0.0 mm 0.00 in0.0 mm 0.00 in0.0 mm
08:00 PM 48.7°F9.3°C 43.1°F6.2°C 81% 6.7 mph SSW10.8 kmh SSW 14.3 mph23.0 kmh 30.06 in1017.9 mb 0.00 in0.0 mm 0.00 in0.0 mm 0.00 in0.0 mm
08:05 PM 48.7°F9.3°C 43.4°F6.3°C 82% 8.5 mph SSW13.7 kmh SSW 14.3 mph23.0 kmh 30.06 in1017.9 mb 0.00 in0.0 mm 0.00 in0.0 mm 0.00 in0.0 mm
08:10 PM 48.8°F9.3°C 43.3°F6.3°C 81% 9.8 mph S15.8 kmh S 14.3 mph23.0 kmh 30.06 in1017.9 mb 0.00 in0.0 mm 0.00 in0.0 mm 0.00 in0.0 mm
08:15 PM 48.7°F9.3°C 43.4°F6.3°C 82% 8.2 mph S13.2 kmh S 11.6 mph18.7 kmh 30.06 in1017.9 mb 0.00 in0.0 mm 0.00 in0.0 mm 0.00 in0.0 mm
08:20 PM 48.8°F9.3°C 43.3°F6.3°C 81% 8.9 mph S14.3 kmh S 12.8 mph20.6 kmh 30.06 in1017.9 mb 0.00 in0.0 mm 0.00 in0.0 mm 0.00 in0.0 mm
08:25 PM 48.8°F9.3°C 43.3°F6.3°C 81% 9.0 mph S14.5 kmh S 12.8 mph20.6 kmh 30.06 in1017.9 mb 0.00 in0.0 mm 0.00 in0.0 mm 0.00 in0.0 mm
08:30 PM 49.0°F9.4°C 43.4°F6.3°C 81% 8.9 mph S14.3 kmh S 12.2 mph19.6 kmh 30.06 in1017.9 mb 0.00 in0.0 mm 0.00 in0.0 mm 0.00 in0.0 mm
08:35 PM 49.0°F9.4°C 43.4°F6.3°C 81% 9.2 mph S14.8 kmh S 12.2 mph19.6 kmh 30.06 in1017.9 mb 0.00 in0.0 mm 0.00 in0.0 mm 0.00 in0.0 mm
08:40 PM 49.0°F9.4°C 43.4°F6.3°C 81% 7.9 mph SSW12.7 kmh SSW 11.6 mph18.7 kmh 30.06 in1017.9 mb 0.00 in0.0 mm 0.00 in0.0 mm 0.00 in0.0 mm
08:45 PM 49.0°F9.4°C 43.4°F6.3°C 81% 7.5 mph SW12.1 kmh SW 9.5 mph15.3 kmh 30.06 in1017.9 mb 0.00 in0.0 mm 0.00 in0.0 mm 0.00 in0.0 mm
08:50 PM 49.2°F9.6°C 43.6°F6.4°C 81% 8.5 mph S13.7 kmh S 11.6 mph18.7 kmh 30.06 in1017.9 mb 0.00 in0.0 mm 0.00 in0.0 mm 0.00 in0.0 mm
08:55 PM 49.2°F9.6°C 43.6°F6.4°C 81% 8.4 mph S13.5 kmh S 11.6 mph18.7 kmh 30.09 in1019.0 mb 0.00 in0.0 mm 0.00 in0.0 mm 0.00 in0.0 mm
09:00 PM 49.2°F9.6°C 43.6°F6.4°C 81% 7.2 mph S11.6 kmh S 8.6 mph13.8 kmh 30.09 in1019.0 mb 0.00 in0.0 mm 0.00 in0.0 mm 0.00 in0.0 mm
09:05 PM 49.2°F9.6°C 43.6°F6.4°C 81% 7.6 mph S12.2 kmh S 9.8 mph15.8 kmh 30.09 in1019.0 mb 0.00 in0.0 mm 0.00 in0.0 mm 0.00 in0.0 mm
09:10 PM 49.2°F9.6°C 43.6°F6.4°C 81% 7.8 mph S12.6 kmh S 10.4 mph16.7 kmh 30.06 in1017.9 mb 0.00 in0.0 mm 0.00 in0.0 mm 0.00 in0.0 mm
09:15 PM 49.0°F9.4°C 43.4°F6.3°C 81% 6.7 mph S10.8 kmh S 10.4 mph16.7 kmh 30.06 in1017.9 mb 0.00 in0.0 mm 0.00 in0.0 mm 0.00 in0.0 mm
09:20 PM 49.0°F9.4°C 43.4°F6.3°C 81% 8.0 mph S12.9 kmh S 13.7 mph22.0 kmh 30.06 in1017.9 mb 0.00 in0.0 mm 0.00 in0.0 mm 0.00 in0.0 mm
09:25 PM 49.0°F9.4°C 43.4°F6.3°C 81% 8.5 mph SSW13.7 kmh SSW 13.7 mph22.0 kmh 30.06 in1017.9 mb 0.00 in0.0 mm 0.00 in0.0 mm 0.00 in0.0 mm
09:30 PM 48.8°F9.3°C 43.3°F6.3°C 81% 7.4 mph SSW11.9 kmh SSW 11.3 mph18.2 kmh 30.06 in1017.9 mb 0.00 in0.0 mm 0.00 in0.0 mm 0.00 in0.0 mm
09:35 PM 48.8°F9.3°C 43.3°F6.3°C 81% 7.5 mph SSW12.1 kmh SSW 11.3 mph18.2 kmh 30.06 in1017.9 mb 0.00 in0.0 mm 0.00 in0.0 mm 0.00 in0.0 mm
09:40 PM 49.0°F9.4°C 43.4°F6.3°C 81% 8.0 mph SSW12.9 kmh SSW 13.1 mph21.1 kmh 30.09 in1019.0 mb 0.00 in0.0 mm 0.00 in0.0 mm 0.00 in0.0 mm
09:45 PM 48.8°F9.3°C 43.3°F6.3°C 81% 7.2 mph SSW11.6 kmh SSW 13.1 mph21.1 kmh 30.09 in1019.0 mb 0.00 in0.0 mm 0.00 in0.0 mm 0.00 in0.0 mm
09:50 PM 48.8°F9.3°C 43.3°F6.3°C 81% 6.5 mph SSW10.5 kmh SSW 8.6 mph13.8 kmh 30.09 in1019.0 mb 0.00 in0.0 mm 0.00 in0.0 mm 0.00 in0.0 mm
09:55 PM 48.8°F9.3°C 43.3°F6.3°C 81% 6.5 mph S10.5 kmh S 9.8 mph15.8 kmh 30.09 in1019.0 mb 0.00 in0.0 mm 0.00 in0.0 mm 0.00 in0.0 mm
10:00 PM 48.8°F9.3°C 43.3°F6.3°C 81% 6.8 mph S10.9 kmh S 9.8 mph15.8 kmh 30.09 in1019.0 mb 0.00 in0.0 mm 0.00 in0.0 mm 0.00 in0.0 mm
10:05 PM 48.8°F9.3°C 43.3°F6.3°C 81% 6.3 mph S10.1 kmh S 9.8 mph15.8 kmh 30.09 in1019.0 mb 0.00 in0.0 mm 0.00 in0.0 mm 0.00 in0.0 mm
10:10 PM 48.8°F9.3°C 43.3°F6.3°C 81% 5.9 mph S9.5 kmh S 8.6 mph13.8 kmh 30.09 in1019.0 mb 0.00 in0.0 mm 0.00 in0.0 mm 0.00 in0.0 mm
10:15 PM 48.8°F9.3°C 43.6°F6.4°C 82% 6.3 mph SSW10.1 kmh SSW 8.6 mph13.8 kmh 30.09 in1019.0 mb 0.00 in0.0 mm 0.00 in0.0 mm 0.00 in0.0 mm
10:20 PM 48.8°F9.3°C 43.6°F6.4°C 82% 6.3 mph S10.1 kmh S 8.6 mph13.8 kmh 30.09 in1019.0 mb 0.00 in0.0 mm 0.00 in0.0 mm 0.00 in0.0 mm
10:25 PM 48.8°F9.3°C 43.6°F6.4°C 82% 5.7 mph S9.2 kmh S 8.6 mph13.8 kmh 30.09 in1019.0 mb 0.00 in0.0 mm 0.00 in0.0 mm 0.00 in0.0 mm
10:30 PM 48.8°F9.3°C 43.6°F6.4°C 82% 6.4 mph S10.3 kmh S 11.6 mph18.7 kmh 30.09 in1019.0 mb 0.00 in0.0 mm 0.00 in0.0 mm 0.00 in0.0 mm
10:35 PM 48.8°F9.3°C 43.6°F6.4°C 82% 6.9 mph SSW11.1 kmh SSW 11.6 mph18.7 kmh 30.09 in1019.0 mb 0.00 in0.0 mm 0.00 in0.0 mm 0.00 in0.0 mm
10:40 PM 48.8°F9.3°C 43.6°F6.4°C 82% 6.0 mph SSW9.7 kmh SSW 10.1 mph16.3 kmh 30.09 in1019.0 mb 0.00 in0.0 mm 0.00 in0.0 mm 0.00 in0.0 mm
10:45 PM 48.8°F9.3°C 43.6°F6.4°C 82% 6.1 mph SSW9.8 kmh SSW 10.1 mph16.3 kmh 30.09 in1019.0 mb 0.00 in0.0 mm 0.00 in0.0 mm 0.00 in0.0 mm
10:50 PM 49.0°F9.4°C 43.8°F6.6°C 82% 6.4 mph SSW10.3 kmh SSW 8.6 mph13.8 kmh 30.09 in1019.0 mb 0.00 in0.0 mm 0.00 in0.0 mm 0.00 in0.0 mm
10:55 PM 49.0°F9.4°C 43.8°F6.6°C 82% 6.7 mph SSW10.8 kmh SSW 8.6 mph13.8 kmh 30.09 in1019.0 mb 0.00 in0.0 mm 0.00 in0.0 mm 0.00 in0.0 mm
11:00 PM 49.0°F9.4°C 43.8°F6.6°C 82% 7.1 mph S11.4 kmh S 13.1 mph21.1 kmh 30.09 in1019.0 mb 0.00 in0.0 mm 0.00 in0.0 mm 0.00 in0.0 mm
11:05 PM 49.0°F9.4°C 43.8°F6.6°C 82% 7.5 mph S12.1 kmh S 13.1 mph21.1 kmh 30.09 in1019.0 mb 0.00 in0.0 mm 0.00 in0.0 mm 0.00 in0.0 mm
11:10 PM 49.0°F9.4°C 43.8°F6.6°C 82% 8.1 mph SSW13.0 kmh SSW 11.3 mph18.2 kmh 30.09 in1019.0 mb 0.00 in0.0 mm 0.00 in0.0 mm 0.00 in0.0 mm
11:15 PM 49.0°F9.4°C 43.8°F6.6°C 82% 8.5 mph S13.7 kmh S 11.3 mph18.2 kmh 30.09 in1019.0 mb 0.00 in0.0 mm 0.00 in0.0 mm 0.00 in0.0 mm
11:20 PM 49.0°F9.4°C 43.8°F6.6°C 82% 7.3 mph S11.7 kmh S 11.3 mph18.2 kmh 30.09 in1019.0 mb 0.00 in0.0 mm 0.00 in0.0 mm 0.00 in0.0 mm
11:25 PM 49.0°F9.4°C 43.8°F6.6°C 82% 5.8 mph SSW9.3 kmh SSW 8.6 mph13.8 kmh 30.09 in1019.0 mb 0.00 in0.0 mm 0.00 in0.0 mm 0.00 in0.0 mm
11:30 PM 49.0°F9.4°C 43.8°F6.6°C 82% 5.6 mph S9.0 kmh S 8.6 mph13.8 kmh 30.09 in1019.0 mb 0.00 in0.0 mm 0.00 in0.0 mm 0.00 in0.0 mm
11:35 PM 49.0°F9.4°C 43.8°F6.6°C 82% 5.4 mph S8.7 kmh S 8.6 mph13.8 kmh 30.09 in1019.0 mb 0.00 in0.0 mm 0.00 in0.0 mm 0.00 in0.0 mm
11:40 PM 49.0°F9.4°C 43.8°F6.6°C 82% 5.2 mph SSW8.4 kmh SSW 8.6 mph13.8 kmh 30.09 in1019.0 mb 0.00 in0.0 mm 0.00 in0.0 mm 0.00 in0.0 mm
11:45 PM 49.2°F9.6°C 43.9°F6.6°C 82% 5.2 mph SSW8.4 kmh SSW 8.6 mph13.8 kmh 30.09 in1019.0 mb 0.00 in0.0 mm 0.00 in0.0 mm 0.00 in0.0 mm
11:50 PM 49.2°F9.6°C 43.9°F6.6°C 82% 5.4 mph SSW8.7 kmh SSW 8.0 mph12.9 kmh 30.09 in1019.0 mb 0.00 in0.0 mm 0.00 in0.0 mm 0.00 in0.0 mm
11:55 PM 49.2°F9.6°C 43.9°F6.6°C 82% 6.5 mph SSW10.5 kmh SSW 12.2 mph19.6 kmh 30.09 in1019.0 mb 0.00 in0.0 mm 0.00 in0.0 mm 0.00 in0.0 mm